sensor_id;sensor_type;location;lat;lon;timestamp;temperature;humidity
14347;DHT22;7257;52.158;9.968;2023-02-28T00:00:18;1.10;78.40
14347;DHT22;7257;52.158;9.968;2023-02-28T00:00:40;1.10;75.40
14347;DHT22;7257;52.158;9.968;2023-02-28T00:01:01;1.10;77.20
14347;DHT22;7257;52.158;9.968;2023-02-28T00:01:22;1.10;73.60
14347;DHT22;7257;52.158;9.968;2023-02-28T00:01:43;1.10;80.20
14347;DHT22;7257;52.158;9.968;2023-02-28T00:02:05;1.10;79.90
14347;DHT22;7257;52.158;9.968;2023-02-28T00:02:26;1.10;80.50
14347;DHT22;7257;52.158;9.968;2023-02-28T00:02:47;1.10;78.20
14347;DHT22;7257;52.158;9.968;2023-02-28T00:03:08;1.10;73.30
14347;DHT22;7257;52.158;9.968;2023-02-28T00:03:30;1.20;75.90
14347;DHT22;7257;52.158;9.968;2023-02-28T00:03:55;1.20;75.80
14347;DHT22;7257;52.158;9.968;2023-02-28T00:04:16;1.20;72.20
14347;DHT22;7257;52.158;9.968;2023-02-28T00:04:37;1.20;74.10
14347;DHT22;7257;52.158;9.968;2023-02-28T00:04:59;1.20;72.50
14347;DHT22;7257;52.158;9.968;2023-02-28T00:05:25;1.20;75.10
14347;DHT22;7257;52.158;9.968;2023-02-28T00:05:46;1.10;75.40
14347;DHT22;7257;52.158;9.968;2023-02-28T00:06:07;1.10;77.40
14347;DHT22;7257;52.158;9.968;2023-02-28T00:06:30;1.10;76.30
14347;DHT22;7257;52.158;9.968;2023-02-28T00:06:51;1.20;77.10
14347;DHT22;7257;52.158;9.968;2023-02-28T00:07:12;1.20;75.60
14347;DHT22;7257;52.158;9.968;2023-02-28T00:07:35;1.20;79.60
14347;DHT22;7257;52.158;9.968;2023-02-28T00:07:56;1.20;79.50
14347;DHT22;7257;52.158;9.968;2023-02-28T00:08:17;1.20;70.90
14347;DHT22;7257;52.158;9.968;2023-02-28T00:08:39;1.20;74.40
14347;DHT22;7257;52.158;9.968;2023-02-28T00:09:00;1.20;75.00
14347;DHT22;7257;52.158;9.968;2023-02-28T00:09:21;1.30;73.60
14347;DHT22;7257;52.158;9.968;2023-02-28T00:09:42;1.30;72.80
14347;DHT22;7257;52.158;9.968;2023-02-28T00:10:05;1.30;71.90
14347;DHT22;7257;52.158;9.968;2023-02-28T00:10:29;1.30;72.70
14347;DHT22;7257;52.158;9.968;2023-02-28T00:10:50;1.30;72.00
14347;DHT22;7257;52.158;9.968;2023-02-28T00:11:13;1.30;72.90
14347;DHT22;7257;52.158;9.968;2023-02-28T00:11:35;1.30;72.70
14347;DHT22;7257;52.158;9.968;2023-02-28T00:11:58;1.30;68.20
14347;DHT22;7257;52.158;9.968;2023-02-28T00:12:19;1.30;67.00
14347;DHT22;7257;52.158;9.968;2023-02-28T00:12:40;1.20;68.20
14347;DHT22;7257;52.158;9.968;2023-02-28T00:13:03;1.20;69.30
14347;DHT22;7257;52.158;9.968;2023-02-28T00:13:26;1.10;70.20
14347;DHT22;7257;52.158;9.968;2023-02-28T00:13:47;1.10;69.70
14347;DHT22;7257;52.158;9.968;2023-02-28T00:14:08;1.10;70.00
14347;DHT22;7257;52.158;9.968;2023-02-28T00:14:30;1.10;70.20
14347;DHT22;7257;52.158;9.968;2023-02-28T00:14:52;1.00;69.60
14347;DHT22;7257;52.158;9.968;2023-02-28T00:15:13;1.00;66.60
14347;DHT22;7257;52.158;9.968;2023-02-28T00:15:34;1.00;72.80
14347;DHT22;7257;52.158;9.968;2023-02-28T00:15:59;0.90;69.20
14347;DHT22;7257;52.158;9.968;2023-02-28T00:16:22;0.90;71.60
14347;DHT22;7257;52.158;9.968;2023-02-28T00:16:43;1.00;71.20
14347;DHT22;7257;52.158;9.968;2023-02-28T00:17:04;1.00;73.10
14347;DHT22;7257;52.158;9.968;2023-02-28T00:17:25;1.00;74.20
14347;DHT22;7257;52.158;9.968;2023-02-28T00:17:46;1.00;76.50
14347;DHT22;7257;52.158;9.968;2023-02-28T00:18:08;1.10;77.20
14347;DHT22;7257;52.158;9.968;2023-02-28T00:18:29;1.10;78.80
14347;DHT22;7257;52.158;9.968;2023-02-28T00:18:50;1.10;76.40
14347;DHT22;7257;52.158;9.968;2023-02-28T00:19:11;1.10;77.60
14347;DHT22;7257;52.158;9.968;2023-02-28T00:19:33;1.10;73.60
14347;DHT22;7257;52.158;9.968;2023-02-28T00:19:54;1.20;75.40
14347;DHT22;7257;52.158;9.968;2023-02-28T00:20:16;1.20;74.10
14347;DHT22;7257;52.158;9.968;2023-02-28T00:20:37;1.20;72.30
14347;DHT22;7257;52.158;9.968;2023-02-28T00:20:58;1.30;77.20
14347;DHT22;7257;52.158;9.968;2023-02-28T00:21:20;1.30;76.50
14347;DHT22;7257;52.158;9.968;2023-02-28T00:21:42;1.30;79.30
14347;DHT22;7257;52.158;9.968;2023-02-28T00:22:03;1.30;72.10
14347;DHT22;7257;52.158;9.968;2023-02-28T00:22:24;1.30;79.20
14347;DHT22;7257;52.158;9.968;2023-02-28T00:22:47;1.30;76.90
14347;DHT22;7257;52.158;9.968;2023-02-28T00:23:08;1.30;79.30
14347;DHT22;7257;52.158;9.968;2023-02-28T00:23:30;1.30;82.70
14347;DHT22;7257;52.158;9.968;2023-02-28T00:23:51;1.30;76.30
14347;DHT22;7257;52.158;9.968;2023-02-28T00:24:11;1.40;74.70
14347;DHT22;7257;52.158;9.968;2023-02-28T00:24:32;1.40;74.00
14347;DHT22;7257;52.158;9.968;2023-02-28T00:24:54;1.40;74.50
14347;DHT22;7257;52.158;9.968;2023-02-28T00:25:17;1.40;72.40
14347;DHT22;7257;52.158;9.968;2023-02-28T00:25:38;1.40;72.90
14347;DHT22;7257;52.158;9.968;2023-02-28T00:25:59;1.30;76.00
14347;DHT22;7257;52.158;9.968;2023-02-28T00:26:22;1.40;75.80
14347;DHT22;7257;52.158;9.968;2023-02-28T00:26:43;1.40;74.30
14347;DHT22;7257;52.158;9.968;2023-02-28T00:27:03;1.30;72.30
14347;DHT22;7257;52.158;9.968;2023-02-28T00:27:24;1.30;69.20
14347;DHT22;7257;52.158;9.968;2023-02-28T00:27:46;1.30;68.60
14347;DHT22;7257;52.158;9.968;2023-02-28T00:28:08;1.30;68.90
14347;DHT22;7257;52.158;9.968;2023-02-28T00:28:30;1.30;70.30
14347;DHT22;7257;52.158;9.968;2023-02-28T00:28:52;1.30;70.40
14347;DHT22;7257;52.158;9.968;2023-02-28T00:29:13;1.30;69.70
14347;DHT22;7257;52.158;9.968;2023-02-28T00:29:35;1.20;67.90
14347;DHT22;7257;52.158;9.968;2023-02-28T00:29:56;1.20;67.90
14347;DHT22;7257;52.158;9.968;2023-02-28T00:30:18;1.20;69.10
14347;DHT22;7257;52.158;9.968;2023-02-28T00:30:39;1.20;68.70
14347;DHT22;7257;52.158;9.968;2023-02-28T00:31:00;1.10;67.20
14347;DHT22;7257;52.158;9.968;2023-02-28T00:31:22;1.10;68.40
14347;DHT22;7257;52.158;9.968;2023-02-28T00:31:43;1.10;68.90
14347;DHT22;7257;52.158;9.968;2023-02-28T00:32:05;1.10;70.70
14347;DHT22;7257;52.158;9.968;2023-02-28T00:32:26;1.10;71.40
14347;DHT22;7257;52.158;9.968;2023-02-28T00:32:47;1.10;74.20
14347;DHT22;7257;52.158;9.968;2023-02-28T00:33:09;1.00;73.80
14347;DHT22;7257;52.158;9.968;2023-02-28T00:33:30;1.00;75.60
14347;DHT22;7257;52.158;9.968;2023-02-28T00:33:51;0.90;74.00
14347;DHT22;7257;52.158;9.968;2023-02-28T00:34:12;0.90;74.30
14347;DHT22;7257;52.158;9.968;2023-02-28T00:34:34;0.90;73.50
14347;DHT22;7257;52.158;9.968;2023-02-28T00:34:58;0.90;73.20
14347;DHT22;7257;52.158;9.968;2023-02-28T00:35:18;0.90;73.70
14347;DHT22;7257;52.158;9.968;2023-02-28T00:35:40;0.80;74.80
14347;DHT22;7257;52.158;9.968;2023-02-28T00:36:03;0.80;74.50
14347;DHT22;7257;52.158;9.968;2023-02-28T00:36:24;0.80;74.50
14347;DHT22;7257;52.158;9.968;2023-02-28T00:36:45;0.80;76.80
14347;DHT22;7257;52.158;9.968;2023-02-28T00:37:10;0.80;74.40
14347;DHT22;7257;52.158;9.968;2023-02-28T00:37:33;0.80;75.40
14347;DHT22;7257;52.158;9.968;2023-02-28T00:37:54;0.80;76.70
14347;DHT22;7257;52.158;9.968;2023-02-28T00:38:15;0.80;76.80
14347;DHT22;7257;52.158;9.968;2023-02-28T00:38:36;0.80;72.10
14347;DHT22;7257;52.158;9.968;2023-02-28T00:38:58;0.80;76.10
14347;DHT22;7257;52.158;9.968;2023-02-28T00:39:20;0.90;76.00
14347;DHT22;7257;52.158;9.968;2023-02-28T00:39:41;0.80;77.60
14347;DHT22;7257;52.158;9.968;2023-02-28T00:40:03;0.80;73.30
14347;DHT22;7257;52.158;9.968;2023-02-28T00:40:25;0.80;76.80
14347;DHT22;7257;52.158;9.968;2023-02-28T00:40:47;0.80;80.00
14347;DHT22;7257;52.158;9.968;2023-02-28T00:41:08;0.70;82.70
14347;DHT22;7257;52.158;9.968;2023-02-28T00:41:29;0.70;81.00
14347;DHT22;7257;52.158;9.968;2023-02-28T00:41:50;0.70;82.40
14347;DHT22;7257;52.158;9.968;2023-02-28T00:42:12;0.70;86.30
14347;DHT22;7257;52.158;9.968;2023-02-28T00:42:33;0.70;80.80
14347;DHT22;7257;52.158;9.968;2023-02-28T00:42:54;0.70;76.90
14347;DHT22;7257;52.158;9.968;2023-02-28T00:43:15;0.70;80.00
14347;DHT22;7257;52.158;9.968;2023-02-28T00:43:39;0.70;86.90
14347;DHT22;7257;52.158;9.968;2023-02-28T00:44:00;0.70;86.60
14347;DHT22;7257;52.158;9.968;2023-02-28T00:44:21;0.70;85.30
14347;DHT22;7257;52.158;9.968;2023-02-28T00:44:42;0.80;86.10
14347;DHT22;7257;52.158;9.968;2023-02-28T00:45:05;0.80;84.30
14347;DHT22;7257;52.158;9.968;2023-02-28T00:45:26;0.80;88.50
14347;DHT22;7257;52.158;9.968;2023-02-28T00:45:47;0.80;77.00
14347;DHT22;7257;52.158;9.968;2023-02-28T00:46:08;0.90;77.10
14347;DHT22;7257;52.158;9.968;2023-02-28T00:46:30;0.90;79.30
14347;DHT22;7257;52.158;9.968;2023-02-28T00:46:51;0.90;84.80
14347;DHT22;7257;52.158;9.968;2023-02-28T00:47:12;1.00;79.10
14347;DHT22;7257;52.158;9.968;2023-02-28T00:47:33;1.00;79.20
14347;DHT22;7257;52.158;9.968;2023-02-28T00:47:54;1.00;79.10
14347;DHT22;7257;52.158;9.968;2023-02-28T00:48:15;1.00;77.80
14347;DHT22;7257;52.158;9.968;2023-02-28T00:48:36;1.10;77.00
14347;DHT22;7257;52.158;9.968;2023-02-28T00:48:57;1.10;78.60
14347;DHT22;7257;52.158;9.968;2023-02-28T00:49:18;1.10;72.70
14347;DHT22;7257;52.158;9.968;2023-02-28T00:49:40;1.10;74.60
14347;DHT22;7257;52.158;9.968;2023-02-28T00:50:02;1.10;76.60
14347;DHT22;7257;52.158;9.968;2023-02-28T00:50:23;1.20;74.00
14347;DHT22;7257;52.158;9.968;2023-02-28T00:50:44;1.20;73.80
14347;DHT22;7257;52.158;9.968;2023-02-28T00:51:09;1.20;73.40
14347;DHT22;7257;52.158;9.968;2023-02-28T00:51:30;1.30;73.30
14347;DHT22;7257;52.158;9.968;2023-02-28T00:51:52;1.20;79.10
14347;DHT22;7257;52.158;9.968;2023-02-28T00:52:12;1.30;73.90
14347;DHT22;7257;52.158;9.968;2023-02-28T00:52:34;1.30;69.90
14347;DHT22;7257;52.158;9.968;2023-02-28T00:52:55;1.30;71.20
14347;DHT22;7257;52.158;9.968;2023-02-28T00:53:16;1.40;72.30
14347;DHT22;7257;52.158;9.968;2023-02-28T00:53:37;1.40;72.70
14347;DHT22;7257;52.158;9.968;2023-02-28T00:53:59;1.40;69.50
14347;DHT22;7257;52.158;9.968;2023-02-28T00:54:20;1.40;71.60
14347;DHT22;7257;52.158;9.968;2023-02-28T00:54:41;1.40;72.20
14347;DHT22;7257;52.158;9.968;2023-02-28T00:55:02;1.40;75.40
14347;DHT22;7257;52.158;9.968;2023-02-28T00:55:24;1.40;74.80
14347;DHT22;7257;52.158;9.968;2023-02-28T00:55:45;1.40;71.50
14347;DHT22;7257;52.158;9.968;2023-02-28T00:56:06;1.40;71.20
14347;DHT22;7257;52.158;9.968;2023-02-28T00:56:27;1.40;70.80
14347;DHT22;7257;52.158;9.968;2023-02-28T00:56:49;1.40;72.50
14347;DHT22;7257;52.158;9.968;2023-02-28T00:57:10;1.40;72.70
14347;DHT22;7257;52.158;9.968;2023-02-28T00:57:31;1.30;72.80
14347;DHT22;7257;52.158;9.968;2023-02-28T00:57:52;1.30;76.00
14347;DHT22;7257;52.158;9.968;2023-02-28T00:58:14;1.30;73.40
14347;DHT22;7257;52.158;9.968;2023-02-28T00:58:35;1.30;69.90
14347;DHT22;7257;52.158;9.968;2023-02-28T00:58:57;1.30;71.20
14347;DHT22;7257;52.158;9.968;2023-02-28T00:59:18;1.30;71.50
14347;DHT22;7257;52.158;9.968;2023-02-28T00:59:40;1.20;70.90
14347;DHT22;7257;52.158;9.968;2023-02-28T01:00:02;1.20;73.20
14347;DHT22;7257;52.158;9.968;2023-02-28T01:00:24;1.20;74.80
14347;DHT22;7257;52.158;9.968;2023-02-28T01:00:45;1.10;78.80
14347;DHT22;7257;52.158;9.968;2023-02-28T01:01:09;1.10;80.00
14347;DHT22;7257;52.158;9.968;2023-02-28T01:01:30;1.10;78.00
14347;DHT22;7257;52.158;9.968;2023-02-28T01:01:51;1.10;75.80
14347;DHT22;7257;52.158;9.968;2023-02-28T01:02:12;1.00;74.50
14347;DHT22;7257;52.158;9.968;2023-02-28T01:02:33;1.10;77.00
14347;DHT22;7257;52.158;9.968;2023-02-28T01:02:55;1.10;83.60
14347;DHT22;7257;52.158;9.968;2023-02-28T01:03:16;1.00;75.80
14347;DHT22;7257;52.158;9.968;2023-02-28T01:03:37;1.10;73.80
14347;DHT22;7257;52.158;9.968;2023-02-28T01:03:58;1.10;75.90
14347;DHT22;7257;52.158;9.968;2023-02-28T01:04:20;1.10;76.30
14347;DHT22;7257;52.158;9.968;2023-02-28T01:04:41;1.10;77.90
14347;DHT22;7257;52.158;9.968;2023-02-28T01:05:03;1.00;80.30
14347;DHT22;7257;52.158;9.968;2023-02-28T01:05:23;1.00;80.00
14347;DHT22;7257;52.158;9.968;2023-02-28T01:05:46;1.00;76.60
14347;DHT22;7257;52.158;9.968;2023-02-28T01:06:07;1.00;77.20
14347;DHT22;7257;52.158;9.968;2023-02-28T01:06:28;1.00;76.70
14347;DHT22;7257;52.158;9.968;2023-02-28T01:06:49;1.00;76.70
14347;DHT22;7257;52.158;9.968;2023-02-28T01:07:11;1.00;75.00
14347;DHT22;7257;52.158;9.968;2023-02-28T01:07:31;0.90;80.40
14347;DHT22;7257;52.158;9.968;2023-02-28T01:07:52;0.90;77.50
14347;DHT22;7257;52.158;9.968;2023-02-28T01:08:14;0.90;83.30
14347;DHT22;7257;52.158;9.968;2023-02-28T01:08:35;0.80;73.80
14347;DHT22;7257;52.158;9.968;2023-02-28T01:08:57;0.90;75.50
14347;DHT22;7257;52.158;9.968;2023-02-28T01:09:18;1.00;75.70
14347;DHT22;7257;52.158;9.968;2023-02-28T01:09:39;1.00;77.40
14347;DHT22;7257;52.158;9.968;2023-02-28T01:10:00;1.00;71.90
14347;DHT22;7257;52.158;9.968;2023-02-28T01:10:22;1.00;73.40
14347;DHT22;7257;52.158;9.968;2023-02-28T01:10:43;1.00;76.60
14347;DHT22;7257;52.158;9.968;2023-02-28T01:11:08;1.00;73.40
14347;DHT22;7257;52.158;9.968;2023-02-28T01:11:29;1.00;74.10
14347;DHT22;7257;52.158;9.968;2023-02-28T01:11:51;1.00;76.40
14347;DHT22;7257;52.158;9.968;2023-02-28T01:12:12;1.00;76.80
14347;DHT22;7257;52.158;9.968;2023-02-28T01:12:33;1.00;74.90
14347;DHT22;7257;52.158;9.968;2023-02-28T01:12:54;1.00;77.30
14347;DHT22;7257;52.158;9.968;2023-02-28T01:13:16;1.00;77.90
14347;DHT22;7257;52.158;9.968;2023-02-28T01:13:37;1.00;76.80
14347;DHT22;7257;52.158;9.968;2023-02-28T01:14:00;1.00;78.00
14347;DHT22;7257;52.158;9.968;2023-02-28T01:14:21;1.00;76.50
14347;DHT22;7257;52.158;9.968;2023-02-28T01:14:42;1.00;73.80
14347;DHT22;7257;52.158;9.968;2023-02-28T01:15:05;1.00;72.60
14347;DHT22;7257;52.158;9.968;2023-02-28T01:15:26;1.00;73.70
14347;DHT22;7257;52.158;9.968;2023-02-28T01:15:50;1.00;76.20
14347;DHT22;7257;52.158;9.968;2023-02-28T01:16:12;1.00;77.50
14347;DHT22;7257;52.158;9.968;2023-02-28T01:16:33;1.00;76.30
14347;DHT22;7257;52.158;9.968;2023-02-28T01:16:55;1.00;76.80
14347;DHT22;7257;52.158;9.968;2023-02-28T01:17:15;1.00;77.70
14347;DHT22;7257;52.158;9.968;2023-02-28T01:17:36;1.10;77.10
14347;DHT22;7257;52.158;9.968;2023-02-28T01:17:57;0.90;77.90
14347;DHT22;7257;52.158;9.968;2023-02-28T01:18:19;0.90;77.80
14347;DHT22;7257;52.158;9.968;2023-02-28T01:18:41;1.00;76.30
14347;DHT22;7257;52.158;9.968;2023-02-28T01:19:01;1.00;78.70
14347;DHT22;7257;52.158;9.968;2023-02-28T01:19:22;1.00;78.20
14347;DHT22;7257;52.158;9.968;2023-02-28T01:19:43;1.00;77.50
14347;DHT22;7257;52.158;9.968;2023-02-28T01:20:06;1.00;78.00
14347;DHT22;7257;52.158;9.968;2023-02-28T01:20:27;1.00;75.90
14347;DHT22;7257;52.158;9.968;2023-02-28T01:20:48;1.00;78.10
14347;DHT22;7257;52.158;9.968;2023-02-28T01:21:11;0.90;79.60
14347;DHT22;7257;52.158;9.968;2023-02-28T01:21:33;0.90;84.00
14347;DHT22;7257;52.158;9.968;2023-02-28T01:21:55;0.90;82.60
14347;DHT22;7257;52.158;9.968;2023-02-28T01:22:16;0.80;76.90
14347;DHT22;7257;52.158;9.968;2023-02-28T01:22:37;0.90;82.90
14347;DHT22;7257;52.158;9.968;2023-02-28T01:22:58;0.90;82.60
14347;DHT22;7257;52.158;9.968;2023-02-28T01:23:19;0.90;79.20
14347;DHT22;7257;52.158;9.968;2023-02-28T01:23:42;0.90;80.00
14347;DHT22;7257;52.158;9.968;2023-02-28T01:24:03;0.90;78.80
14347;DHT22;7257;52.158;9.968;2023-02-28T01:24:24;0.90;79.30
14347;DHT22;7257;52.158;9.968;2023-02-28T01:24:46;0.90;80.50
14347;DHT22;7257;52.158;9.968;2023-02-28T01:25:08;0.90;84.10
14347;DHT22;7257;52.158;9.968;2023-02-28T01:25:29;0.90;83.30
14347;DHT22;7257;52.158;9.968;2023-02-28T01:25:51;0.80;85.90
14347;DHT22;7257;52.158;9.968;2023-02-28T01:26:13;1.00;87.30
14347;DHT22;7257;52.158;9.968;2023-02-28T01:26:36;1.00;88.80
14347;DHT22;7257;52.158;9.968;2023-02-28T01:26:57;1.00;85.90
14347;DHT22;7257;52.158;9.968;2023-02-28T01:27:18;0.90;84.00
14347;DHT22;7257;52.158;9.968;2023-02-28T01:27:39;0.90;83.20
14347;DHT22;7257;52.158;9.968;2023-02-28T01:28:01;0.90;92.00
14347;DHT22;7257;52.158;9.968;2023-02-28T01:28:22;1.00;96.70
14347;DHT22;7257;52.158;9.968;2023-02-28T01:28:43;0.90;92.20
14347;DHT22;7257;52.158;9.968;2023-02-28T01:29:05;1.00;94.20
14347;DHT22;7257;52.158;9.968;2023-02-28T01:29:26;0.90;87.60
14347;DHT22;7257;52.158;9.968;2023-02-28T01:29:48;0.90;87.90
14347;DHT22;7257;52.158;9.968;2023-02-28T01:30:10;1.00;86.00
14347;DHT22;7257;52.158;9.968;2023-02-28T01:30:31;0.90;80.50
14347;DHT22;7257;52.158;9.968;2023-02-28T01:30:52;1.00;80.40
14347;DHT22;7257;52.158;9.968;2023-02-28T01:31:13;1.00;80.90
14347;DHT22;7257;52.158;9.968;2023-02-28T01:31:36;0.90;84.10
14347;DHT22;7257;52.158;9.968;2023-02-28T01:31:56;0.90;90.50
14347;DHT22;7257;52.158;9.968;2023-02-28T01:32:19;1.00;88.10
14347;DHT22;7257;52.158;9.968;2023-02-28T01:32:40;1.00;82.80
14347;DHT22;7257;52.158;9.968;2023-02-28T01:33:02;1.00;82.60
14347;DHT22;7257;52.158;9.968;2023-02-28T01:33:23;1.00;76.60
14347;DHT22;7257;52.158;9.968;2023-02-28T01:33:45;1.00;83.40
14347;DHT22;7257;52.158;9.968;2023-02-28T01:34:06;0.90;86.80
14347;DHT22;7257;52.158;9.968;2023-02-28T01:34:28;1.00;88.10
14347;DHT22;7257;52.158;9.968;2023-02-28T01:34:49;1.00;85.10
14347;DHT22;7257;52.158;9.968;2023-02-28T01:35:10;1.00;79.10
14347;DHT22;7257;52.158;9.968;2023-02-28T01:35:32;1.00;78.70
14347;DHT22;7257;52.158;9.968;2023-02-28T01:35:58;1.00;78.30
14347;DHT22;7257;52.158;9.968;2023-02-28T01:36:21;1.00;78.00
14347;DHT22;7257;52.158;9.968;2023-02-28T01:36:42;0.90;78.50
14347;DHT22;7257;52.158;9.968;2023-02-28T01:37:03;1.00;77.50
14347;DHT22;7257;52.158;9.968;2023-02-28T01:37:25;0.90;81.40
14347;DHT22;7257;52.158;9.968;2023-02-28T01:37:46;1.00;82.50
14347;DHT22;7257;52.158;9.968;2023-02-28T01:38:07;0.90;80.50
14347;DHT22;7257;52.158;9.968;2023-02-28T01:38:27;1.00;80.80
14347;DHT22;7257;52.158;9.968;2023-02-28T01:38:49;1.00;79.00
14347;DHT22;7257;52.158;9.968;2023-02-28T01:39:11;1.00;81.60
14347;DHT22;7257;52.158;9.968;2023-02-28T01:39:33;1.00;79.40
14347;DHT22;7257;52.158;9.968;2023-02-28T01:39:54;1.00;80.90
14347;DHT22;7257;52.158;9.968;2023-02-28T01:40:15;0.90;83.10
14347;DHT22;7257;52.158;9.968;2023-02-28T01:40:36;0.80;84.60
14347;DHT22;7257;52.158;9.968;2023-02-28T01:40:58;0.90;84.90
14347;DHT22;7257;52.158;9.968;2023-02-28T01:41:21;0.90;81.40
14347;DHT22;7257;52.158;9.968;2023-02-28T01:41:42;0.90;76.50
14347;DHT22;7257;52.158;9.968;2023-02-28T01:42:03;0.80;78.90
14347;DHT22;7257;52.158;9.968;2023-02-28T01:42:25;0.80;78.40
14347;DHT22;7257;52.158;9.968;2023-02-28T01:42:46;0.90;79.70
14347;DHT22;7257;52.158;9.968;2023-02-28T01:43:19;0.80;79.60
14347;DHT22;7257;52.158;9.968;2023-02-28T01:44:01;0.70;79.60
14347;DHT22;7257;52.158;9.968;2023-02-28T01:44:58;0.80;79.50
14347;DHT22;7257;52.158;9.968;2023-02-28T01:45:22;0.60;76.00
14347;DHT22;7257;52.158;9.968;2023-02-28T01:45:46;0.70;78.30
14347;DHT22;7257;52.158;9.968;2023-02-28T01:46:07;0.60;77.80
14347;DHT22;7257;52.158;9.968;2023-02-28T01:46:28;0.60;78.80
14347;DHT22;7257;52.158;9.968;2023-02-28T01:46:49;0.70;78.50
14347;DHT22;7257;52.158;9.968;2023-02-28T01:47:10;0.60;79.20
14347;DHT22;7257;52.158;9.968;2023-02-28T01:47:34;0.70;79.30
14347;DHT22;7257;52.158;9.968;2023-02-28T01:47:58;0.70;77.20
14347;DHT22;7257;52.158;9.968;2023-02-28T01:48:22;0.60;79.30
14347;DHT22;7257;52.158;9.968;2023-02-28T01:48:45;0.60;84.00
14347;DHT22;7257;52.158;9.968;2023-02-28T01:49:12;0.60;85.50
14347;DHT22;7257;52.158;9.968;2023-02-28T01:49:33;0.70;83.10
14347;DHT22;7257;52.158;9.968;2023-02-28T01:49:54;0.60;78.90
14347;DHT22;7257;52.158;9.968;2023-02-28T01:50:18;0.70;83.10
14347;DHT22;7257;52.158;9.968;2023-02-28T01:50:42;0.70;85.70
14347;DHT22;7257;52.158;9.968;2023-02-28T01:51:07;0.50;83.70
14347;DHT22;7257;52.158;9.968;2023-02-28T01:51:33;0.70;81.30
14347;DHT22;7257;52.158;9.968;2023-02-28T01:51:56;0.50;79.10
14347;DHT22;7257;52.158;9.968;2023-02-28T01:52:17;0.50;82.10
14347;DHT22;7257;52.158;9.968;2023-02-28T01:52:41;0.50;81.40
14347;DHT22;7257;52.158;9.968;2023-02-28T01:53:05;0.50;81.30
14347;DHT22;7257;52.158;9.968;2023-02-28T01:53:36;0.50;81.40
14347;DHT22;7257;52.158;9.968;2023-02-28T01:54:01;0.50;74.30
14347;DHT22;7257;52.158;9.968;2023-02-28T01:54:25;0.50;77.50
14347;DHT22;7257;52.158;9.968;2023-02-28T01:54:51;0.50;80.20
14347;DHT22;7257;52.158;9.968;2023-02-28T01:55:13;0.60;76.10
14347;DHT22;7257;52.158;9.968;2023-02-28T01:55:36;0.60;77.80
14347;DHT22;7257;52.158;9.968;2023-02-28T01:55:57;0.60;77.20
14347;DHT22;7257;52.158;9.968;2023-02-28T01:56:22;0.60;79.40
14347;DHT22;7257;52.158;9.968;2023-02-28T01:56:47;0.60;79.40
14347;DHT22;7257;52.158;9.968;2023-02-28T01:57:11;0.70;80.50
14347;DHT22;7257;52.158;9.968;2023-02-28T01:57:38;0.60;80.80
14347;DHT22;7257;52.158;9.968;2023-02-28T01:58:02;0.70;82.10
14347;DHT22;7257;52.158;9.968;2023-02-28T01:58:23;0.70;79.50
14347;DHT22;7257;52.158;9.968;2023-02-28T01:58:46;0.70;79.80
14347;DHT22;7257;52.158;9.968;2023-02-28T01:59:07;0.70;82.20
14347;DHT22;7257;52.158;9.968;2023-02-28T01:59:31;0.70;81.20
14347;DHT22;7257;52.158;9.968;2023-02-28T01:59:58;0.70;79.00
14347;DHT22;7257;52.158;9.968;2023-02-28T02:00:23;0.70;77.50
14347;DHT22;7257;52.158;9.968;2023-02-28T02:00:44;0.70;76.00
14347;DHT22;7257;52.158;9.968;2023-02-28T02:01:05;0.80;74.90
14347;DHT22;7257;52.158;9.968;2023-02-28T02:01:27;0.70;75.80
14347;DHT22;7257;52.158;9.968;2023-02-28T02:01:50;0.70;74.30
14347;DHT22;7257;52.158;9.968;2023-02-28T02:02:11;0.70;78.60
14347;DHT22;7257;52.158;9.968;2023-02-28T02:02:32;0.80;77.80
14347;DHT22;7257;52.158;9.968;2023-02-28T02:02:55;0.80;85.20
14347;DHT22;7257;52.158;9.968;2023-02-28T02:03:20;0.80;85.10
14347;DHT22;7257;52.158;9.968;2023-02-28T02:03:41;0.80;77.60
14347;DHT22;7257;52.158;9.968;2023-02-28T02:04:03;0.80;78.30
14347;DHT22;7257;52.158;9.968;2023-02-28T02:04:27;0.80;78.20
14347;DHT22;7257;52.158;9.968;2023-02-28T02:04:56;0.80;84.20
14347;DHT22;7257;52.158;9.968;2023-02-28T02:05:20;0.80;82.50
14347;DHT22;7257;52.158;9.968;2023-02-28T02:05:42;0.80;81.60
14347;DHT22;7257;52.158;9.968;2023-02-28T02:06:08;0.80;84.80
14347;DHT22;7257;52.158;9.968;2023-02-28T02:06:35;0.80;80.90
14347;DHT22;7257;52.158;9.968;2023-02-28T02:06:58;0.70;81.70
14347;DHT22;7257;52.158;9.968;2023-02-28T02:07:20;0.70;77.70
14347;DHT22;7257;52.158;9.968;2023-02-28T02:07:43;0.70;81.80
14347;DHT22;7257;52.158;9.968;2023-02-28T02:08:09;0.70;78.70
14347;DHT22;7257;52.158;9.968;2023-02-28T02:08:30;0.60;83.30
14347;DHT22;7257;52.158;9.968;2023-02-28T02:08:51;0.70;85.90
14347;DHT22;7257;52.158;9.968;2023-02-28T02:09:14;0.60;82.90
14347;DHT22;7257;52.158;9.968;2023-02-28T02:09:35;0.60;83.50
14347;DHT22;7257;52.158;9.968;2023-02-28T02:10:05;0.60;86.40
14347;DHT22;7257;52.158;9.968;2023-02-28T02:10:31;0.60;87.70
14347;DHT22;7257;52.158;9.968;2023-02-28T02:10:56;0.60;86.60
14347;DHT22;7257;52.158;9.968;2023-02-28T02:11:18;0.60;85.70
14347;DHT22;7257;52.158;9.968;2023-02-28T02:11:42;0.60;86.50
14347;DHT22;7257;52.158;9.968;2023-02-28T02:12:12;0.60;85.80
14347;DHT22;7257;52.158;9.968;2023-02-28T02:12:55;0.60;87.30
14347;DHT22;7257;52.158;9.968;2023-02-28T02:13:26;0.60;84.80
14347;DHT22;7257;52.158;9.968;2023-02-28T02:14:00;0.60;77.30
14347;DHT22;7257;52.158;9.968;2023-02-28T02:14:34;0.60;75.20
14347;DHT22;7257;52.158;9.968;2023-02-28T02:15:06;0.60;81.70
14347;DHT22;7257;52.158;9.968;2023-02-28T02:15:33;0.60;76.10
14347;DHT22;7257;52.158;9.968;2023-02-28T02:16:01;0.60;78.10
14347;DHT22;7257;52.158;9.968;2023-02-28T02:16:34;0.60;83.30
14347;DHT22;7257;52.158;9.968;2023-02-28T02:17:10;0.60;80.10
14347;DHT22;7257;52.158;9.968;2023-02-28T02:17:38;0.60;83.80
14347;DHT22;7257;52.158;9.968;2023-02-28T02:18:04;0.60;91.10
14347;DHT22;7257;52.158;9.968;2023-02-28T02:18:33;0.60;90.50
14347;DHT22;7257;52.158;9.968;2023-02-28T02:19:07;0.60;97.20
14347;DHT22;7257;52.158;9.968;2023-02-28T02:20:54;0.70;96.80
14347;DHT22;7257;52.158;9.968;2023-02-28T02:24:52;0.80;75.20
14347;DHT22;7257;52.158;9.968;2023-02-28T02:25:26;0.80;75.60
14347;DHT22;7257;52.158;9.968;2023-02-28T02:25:52;0.80;75.10
14347;DHT22;7257;52.158;9.968;2023-02-28T02:26:44;0.80;75.10
14347;DHT22;7257;52.158;9.968;2023-02-28T02:27:26;0.80;76.20
14347;DHT22;7257;52.158;9.968;2023-02-28T02:29:12;0.80;74.50
14347;DHT22;7257;52.158;9.968;2023-02-28T02:29:56;0.80;73.70
14347;DHT22;7257;52.158;9.968;2023-02-28T02:30:51;0.80;74.00
14347;DHT22;7257;52.158;9.968;2023-02-28T02:31:41;0.80;74.60
14347;DHT22;7257;52.158;9.968;2023-02-28T02:32:42;0.80;74.80
14347;DHT22;7257;52.158;9.968;2023-02-28T02:34:29;0.90;76.90
14347;DHT22;7257;52.158;9.968;2023-02-28T02:35:04;0.90;80.90
14347;DHT22;7257;52.158;9.968;2023-02-28T02:35:31;0.90;78.10
14347;DHT22;7257;52.158;9.968;2023-02-28T02:35:57;0.90;78.30
14347;DHT22;7257;52.158;9.968;2023-02-28T02:36:23;0.90;80.00
14347;DHT22;7257;52.158;9.968;2023-02-28T02:36:49;0.90;76.60
14347;DHT22;7257;52.158;9.968;2023-02-28T02:37:24;0.80;79.40
14347;DHT22;7257;52.158;9.968;2023-02-28T02:37:52;0.80;78.60
14347;DHT22;7257;52.158;9.968;2023-02-28T02:38:23;0.80;79.10
14347;DHT22;7257;52.158;9.968;2023-02-28T02:38:53;0.80;79.50